Change the Weather History Date:

Monday, October 8, 2012

  Actual Average (KOXV) Record (KOXV)
Temperature  
Mean Temperature 52 °F -  
Max Temperature 67 °F 68 °F 84 °F (1980)
Min Temperature 36 °F 45 °F 26 °F (1976)
Degree Days  
Heating Degree Days 14    
Growing Degree Days 2 (Base 50)    
Moisture  
Dew Point 30 °F    
Average Humidity 46    
Maximum Humidity 70    
Minimum Humidity 28    
Precipitation  
Precipitation 0.00 in - - ()
Sea Level Pressure  
Sea Level Pressure 29.97 in    
Wind  
Wind Speed 10 mph (SSW)    
Max Wind Speed 23 mph    
Max Gust Speed 32 mph    
Visibility 10 miles    
Events      
Averages and records for this station are not official NWS values.
T = Trace of Precipitation, MM = Missing Value Source: NWS Daily Summary

Daily Weather History Graph

Daily Weather History Graph

Search for Another Location

Airport or City:

Trip Planner

Search our weather history database for the weather conditions in past years. The results will help you decide how hot, cold, wet, or windy it might be!

Date:

Astronomy

Oct. 08, 2012 Rise Set
Actual Time 7:16 AM CDT 6:41 PM CDT
Civil Twilight 6:48 AM CDT 7:08 PM CDT
Nautical Twilight 6:16 AM CDT 7:40 PM CDT
Astronomical Twilight 5:44 AM CDT 8:12 PM CDT
Moon No Moon Rise 2:35 PM CDT (10/8)
Length of Visible Light 12h 19m
Length of Day
11h 24m
Last Quarter, 46% of the Moon is Illuminated
Oct 8
Last Quarter
Oct 15
New
Oct 21
First Quarter
Oct 29
Full
Nov 6
Last Quarter

Hourly Weather History & Observations

Time (CDT) Temp. Windchill Dew Point Humidity Pressure Visibility Wind Dir Wind Speed Gust Speed Precip Events Conditions
12:15 AM 37.6 °F 33.1 °F 23.4 °F 57% 30.08 in 10.0 mi South 5.8 mph - N/A   Clear
12:35 AM 37.4 °F 32.1 °F 23.2 °F 57% 30.08 in 10.0 mi South 6.9 mph - N/A   Clear
12:55 AM 38.3 °F 33.9 °F 23.9 °F 56% 30.08 in 10.0 mi South 5.8 mph - N/A   Clear
1:15 AM 38.7 °F 34.3 °F 23.7 °F 55% 30.08 in 10.0 mi South 5.8 mph - N/A   Clear
1:35 AM 38.3 °F 33.2 °F 23.7 °F 56% 30.07 in 10.0 mi South 6.9 mph - N/A   Clear
1:55 AM 37.9 °F 33.5 °F 23.9 °F 57% 30.07 in 10.0 mi South 5.8 mph - N/A   Clear
2:15 AM 38.3 °F 33.2 °F 23.9 °F 56% 30.07 in 10.0 mi SSW 6.9 mph - N/A   Clear
2:35 AM 37.8 °F 33.3 °F 24.3 °F 58% 30.07 in 10.0 mi SSW 5.8 mph - N/A   Clear
2:55 AM 37.0 °F 32.4 °F 24.3 °F 60% 30.06 in 10.0 mi South 5.8 mph - N/A   Clear
3:15 AM 36.5 °F 32.7 °F 24.6 °F 62% 30.06 in 10.0 mi SSW 4.6 mph - N/A   Clear
3:35 AM 36.5 °F 31.0 °F 25.2 °F 64% 30.05 in 10.0 mi South 6.9 mph - N/A   Clear
3:55 AM 36.5 °F 31.0 °F 25.5 °F 64% 30.05 in 10.0 mi SSW 6.9 mph - N/A   Clear
4:15 AM 36.1 °F 31.4 °F 25.7 °F 66% 30.05 in 10.0 mi South 5.8 mph - N/A   Clear
4:35 AM 36.0 °F 30.3 °F 26.2 °F 68% 30.05 in 10.0 mi SSW 6.9 mph - N/A   Clear
4:55 AM 36.5 °F 31.8 °F 26.6 °F 67% 30.04 in 10.0 mi South 5.8 mph - N/A   Clear
5:15 AM 36.9 °F 30.7 °F 27.3 °F 68% 30.04 in 10.0 mi SSW 8.1 mph - N/A   Clear
5:35 AM 36.9 °F 31.4 °F 27.5 °F 69% 30.04 in 10.0 mi SSW 6.9 mph - N/A   Clear
5:55 AM 37.4 °F 32.1 °F 28.0 °F 69% 30.04 in 10.0 mi SSW 6.9 mph - N/A   Clear
6:15 AM 37.2 °F 31.9 °F 28.0 °F 69% 30.04 in 10.0 mi South 6.9 mph - N/A   Clear
6:35 AM 37.4 °F 31.4 °F 28.4 °F 70% 30.03 in 10.0 mi South 8.1 mph - N/A   Clear
6:55 AM 38.1 °F 32.3 °F 28.9 °F 70% 30.03 in 10.0 mi South 8.1 mph - N/A   Clear
7:15 AM 38.7 °F 32.9 °F 29.1 °F 69% 30.03 in 10.0 mi South 8.1 mph - N/A   Clear
7:35 AM 38.7 °F 33.6 °F 29.1 °F 69% 30.03 in 10.0 mi South 6.9 mph - N/A   Clear
7:55 AM 39.7 °F 34.9 °F 29.5 °F 67% 30.04 in 10.0 mi South 6.9 mph - N/A   Clear
8:15 AM 41.2 °F 37.3 °F 29.8 °F 64% 30.04 in 10.0 mi South 5.8 mph - N/A   Clear
8:35 AM 42.8 °F 38.6 °F 30.2 °F 61% 30.04 in 10.0 mi South 6.9 mph - N/A   Clear
8:55 AM 44.6 °F 40.7 °F 30.7 °F 58% 30.03 in 10.0 mi South 6.9 mph - N/A   Clear
9:15 AM 46.2 °F 42.2 °F 31.1 °F 56% 30.03 in 10.0 mi SSW 8.1 mph - N/A   Clear
9:35 AM 49.1 °F - 31.8 °F 51% 30.02 in 10.0 mi SSW 10.4 mph - N/A   Clear
9:55 AM 51.6 °F - 31.8 °F 47% 30.02 in 10.0 mi SSW 10.4 mph - N/A   Clear
10:15 AM 52.9 °F - 31.8 °F 45% 30.02 in 10.0 mi South 10.4 mph - N/A   Clear
10:35 AM 55.4 °F - 32.0 °F 41% 30.01 in 10.0 mi South 12.7 mph 17.3 mph N/A   Clear
10:55 AM 57.7 °F - 32.2 °F 38% 30.00 in 10.0 mi South 12.7 mph 18.4 mph N/A   Clear
11:15 AM 59.5 °F - 32.0 °F 35% 29.99 in 10.0 mi South 18.4 mph 21.9 mph N/A   Clear
11:35 AM 61.2 °F - 32.4 °F 34% 29.98 in 10.0 mi SSW 19.6 mph 24.2 mph N/A   Clear
11:55 AM 61.9 °F - 32.2 °F 33% 29.98 in 10.0 mi SSW 17.3 mph 27.6 mph N/A   Clear
12:15 PM 63.0 °F - 32.7 °F 32% 29.97 in 10.0 mi SSW 16.1 mph 25.3 mph N/A   Clear
12:35 PM 63.3 °F - 32.9 °F 32% 29.97 in 10.0 mi South 19.6 mph 27.6 mph N/A   Clear
12:55 PM 63.9 °F - 32.7 °F 31% 29.96 in 10.0 mi SSW 23.0 mph 28.8 mph N/A   Clear
1:15 PM 63.9 °F - 32.9 °F 31% 29.95 in 10.0 mi SSW 19.6 mph 26.5 mph N/A   Clear
1:35 PM 64.2 °F - 32.5 °F 31% 29.94 in 10.0 mi SSW 18.4 mph 26.5 mph N/A   Clear
1:55 PM 65.1 °F - 32.7 °F 30% 29.93 in 10.0 mi SW 19.6 mph 32.2 mph N/A   Clear
2:15 PM 65.1 °F - 32.7 °F 30% 29.92 in 10.0 mi SSW 18.4 mph 27.6 mph N/A   Clear
2:35 PM 64.9 °F - 32.9 °F 30% 29.92 in 10.0 mi SSW 20.7 mph 29.9 mph N/A   Clear
2:55 PM 65.8 °F - 32.5 °F 29% 29.91 in 10.0 mi South 19.6 mph 24.2 mph N/A   Clear
3:15 PM 64.8 °F - 32.5 °F 30% 29.91 in 10.0 mi SSW 16.1 mph 26.5 mph N/A   Clear
3:35 PM 66.9 °F - 32.9 °F 28% 29.90 in 10.0 mi SW 13.8 mph 26.5 mph N/A   Clear
3:55 PM 67.1 °F - 32.7 °F 28% 29.89 in 10.0 mi SSW 15.0 mph 24.2 mph N/A   Clear
4:15 PM 66.2 °F - 32.0 °F 28% 29.88 in 10.0 mi SSW 16.1 mph 28.8 mph N/A   Clear
4:35 PM 66.2 °F - 32.0 °F 28% 29.88 in 10.0 mi SW 18.4 mph 25.3 mph N/A   Clear
4:55 PM 65.8 °F - 31.6 °F 28% 29.87 in 10.0 mi SW 13.8 mph 25.3 mph N/A   Clear
5:15 PM 65.7 °F - 32.0 °F 29% 29.87 in 10.0 mi South 17.3 mph 26.5 mph N/A   Clear
5:35 PM 65.3 °F - 31.8 °F 29% 29.87 in 10.0 mi South 17.3 mph 24.2 mph N/A   Clear
5:55 PM 63.9 °F - 31.6 °F 30% 29.87 in 10.0 mi SSW 15.0 mph 25.3 mph N/A   Clear
6:15 PM 62.2 °F - 31.8 °F 32% 29.87 in 10.0 mi SSW 13.8 mph 21.9 mph N/A   Clear
6:35 PM 61.3 °F - 32.0 °F 33% 29.87 in 10.0 mi South 12.7 mph 19.6 mph N/A   Clear
6:55 PM 60.3 °F - 31.8 °F 34% 29.88 in 10.0 mi South 12.7 mph 17.3 mph N/A   Clear
7:15 PM 59.5 °F - 32.0 °F 35% 29.89 in 10.0 mi South 12.7 mph 18.4 mph N/A   Clear
7:35 PM 59.4 °F - 32.0 °F 36% 29.89 in 10.0 mi South 15.0 mph 19.6 mph N/A   Clear
7:55 PM 58.8 °F - 32.0 °F 36% 29.89 in 10.0 mi South 12.7 mph 17.3 mph N/A   Clear
8:15 PM 58.1 °F - 32.0 °F 37% 29.89 in 10.0 mi South 13.8 mph 21.9 mph N/A   Clear
8:35 PM 57.4 °F - 32.0 °F 38% 29.89 in 10.0 mi South 11.5 mph 20.7 mph N/A   Clear
8:55 PM 57.0 °F - 32.4 °F 39% 29.89 in 10.0 mi South 12.7 mph - N/A   Clear
9:15 PM 56.1 °F - 32.5 °F 41% 29.89 in 10.0 mi South 16.1 mph 20.7 mph N/A   Clear
9:35 PM 55.8 °F - 32.9 °F 42% 29.90 in 10.0 mi South 12.7 mph 19.6 mph N/A   Clear
9:55 PM 55.4 °F - 33.3 °F 43% 29.89 in 10.0 mi South 12.7 mph 21.9 mph N/A   Clear
10:15 PM 55.2 °F - 33.4 °F 44% 29.89 in 10.0 mi South 16.1 mph 19.6 mph N/A   Clear
10:55 PM 54.1 °F - 33.8 °F 46% 29.89 in 10.0 mi South 13.8 mph 17.3 mph N/A   Clear
11:15 PM 54.1 °F - 34.0 °F 47% 29.89 in 10.0 mi South 12.7 mph 19.6 mph N/A   Clear
11:35 PM 53.6 °F - 34.0 °F 47% 29.89 in 10.0 mi South 11.5 mph 21.9 mph N/A   Clear
11:55 PM 53.6 °F - 34.0 °F 47% 29.89 in 10.0 mi South 12.7 mph 20.7 mph N/A   Clear